Other Surface Observations
Issued by NWS Great Falls, MT

Home | Current Version | Previous Version | Text Only | Print | Product List | Glossary On
Versions: 1 2 3 4 5 6 7 8 9 10 11 12 13 14 15 16 17 18 19 20 21 22 23 24 25 26 27 28 29 30 31 32 33 34 35 36 37 38 39 40 41 42 43 44 45 46 47 48 49 50
000
SXUS55 KTFX 242252
OSOTFX

AREA AWOS OBSERVATIONS
NATIONAL WEATHER SERVICE GREAT FALLS MT
0450 PM MDT Thu Apr 24 2014

METAR K1S3 242245Z AUTO 25005KT 10SM 15/M02 A2974
METAR K38S 242245Z AUTO 34011KT 10SM 08/03 A2983
METAR K6S0 242245Z AUTO 25013G23KT 10SM 12/M01 A2977
METAR K6S5 242245Z AUTO 17007KT 10SM 12/M02 A2982
METAR K79S 242245Z AUTO 00000KT 10/05 A2971
METAR K88M 242245Z AUTO 14011G17KT 10SM 11/03 A2976
METAR KEKS 242245Z AUTO 17012G17KT 10SM 09/M01 A2990
METAR KPO1 242245Z AUTO 24007KT 10SM 15/M06 A2970
METAR KPWD 242245Z AUTO 28017G21KT 10SM 12/M02 A2969
METAR KS59 242245Z AUTO 32004KT 10SM 09/07 A2977
METAR KS71 242245Z AUTO 28008KT 10SM 14/M01 A2969



USA.gov is the U.S. government's official web portal to all federal, state and local government web resources and services.